• Join FlightAware (Why Join?)
  • Login
  • US Flag 
12:11PM EST


 

Airport Tracker/Info


-or-


 

Live Flight TrackerFlight Track Log ✈ ASQ3811 ✈ 30-Jan-2014 ✈ KIAH - KCVG

Flight Track Log - Related Links

Times and Time Zones

All times are in EST time to prevent confusion due to time zone crossing. See the ASQ3811 flight status page for this flight to view local times or setup timezone preferences in your user account.

Time Position Orientation Groundspeed Altitude Reporting Facility
EST Latitude Longitude Course Direction KTS MPH feet Rate Location/Type
06:27PM 29.9769 -95.3031 34° Northeast 165 190 600  Level Houston Center
06:29PM 30.0328 -95.2592 34° Northeast 231 266 2,800 1,860 Climbing Houston Center
06:29PM 30.0642 -95.2467 19° North 266 306 3,700 1,140 Climbing Houston Center
06:30PM 30.1039 -95.2228 27° Northeast 271 312 4,000 780 Climbing Houston Center
06:30PM 30.1361 -95.2064 24° Northeast 283 326 4,500 1,920 Climbing Houston Center
06:31PM 30.1783 -95.1919 16° North 282 325 6,000 2,580 Climbing Houston Center
06:32PM 30.2686 -95.1664 14° North 279 321 9,200 2,220 Climbing Houston Center
06:33PM 30.3458 -95.1436 14° North 285 328 10,700 1,200 Climbing Houston Center
06:34PM 30.4339 -95.1183 14° North 326 375 11,700 960 Climbing Houston Center
06:35PM 30.5300 -95.0906 14° North 352 405 12,700 1,020 Climbing Houston Center
06:36PM 30.6261 -95.0519 19° North 366 421 13,900 1,320 Climbing Houston Center
06:37PM 30.7350 -94.9775 30° Northeast 377 434 15,500 1,500 Climbing Houston Center
06:38PM 30.8169 -94.9008 39° Northeast 378 435 17,000 1,440 Climbing Houston Center
06:39PM 30.8997 -94.8272 37° Northeast 377 434 18,500 1,500 Climbing Houston Center
06:40PM 30.9800 -94.7547 38° Northeast 370 426 20,200 1,320 Climbing Houston Center
06:41PM 31.0611 -94.6808 38° Northeast 373 429 21,300 1,140 Climbing Houston Center
06:42PM 31.1631 -94.5883 38° Northeast 393 452 22,600 1,080 Climbing Houston Center
06:43PM 31.2503 -94.5094 38° Northeast 403 464 23,600 960 Climbing Houston Center
06:44PM 31.3397 -94.4278 38° Northeast 410 472 24,700 960 Climbing Houston Center
06:45PM 31.4297 -94.3456 38° Northeast 411 473 25,700 1,080 Climbing Houston Center
06:46PM 31.5383 -94.2461 38° Northeast 413 475 27,000 1,080 Climbing Houston Center
06:47PM 31.6275 -94.1639 38° Northeast 408 470 28,000 960 Climbing Houston Center
06:48PM 31.7169 -94.0811 38° Northeast 409 471 29,100 1,020 Climbing Houston Center
06:49PM 31.8092 -93.9964 38° Northeast 405 466 30,200 960 Climbing Houston Center
06:50PM 31.8814 -93.9317 37° Northeast 403 464 31,000 1,020 Climbing Fort Worth Center
06:51PM 31.9825 -93.8369 38° Northeast 402 463 32,200 1,080 Climbing Fort Worth Center
06:52PM 32.0717 -93.7544 38° Northeast 405 466 33,300 1,020 Climbing Fort Worth Center
06:53PM 32.1650 -93.6678 38° Northeast 406 467 34,400 780 Climbing Fort Worth Center
06:54PM 32.2425 -93.5944 39° Northeast 403 464 35,000 240 Climbing Fort Worth Center
06:55PM 32.3344 -93.5092 38° Northeast 418 481 35,000  Level Fort Worth Center
06:56PM 32.4486 -93.4006 39° Northeast 439 505 35,000  Level Fort Worth Center
06:57PM 32.5450 -93.3103 38° Northeast 442 509 35,000  Level Fort Worth Center
06:58PM 32.6425 -93.2172 39° Northeast 449 517 35,000  Level Fort Worth Center
07:00PM 32.7394 -93.1250 39° Northeast 449 517 35,000  Level Fort Worth Center
07:01PM 32.8364 -93.0328 39° Northeast 450 518 35,000  Level Fort Worth Center
07:02PM 32.9528 -92.9211 39° Northeast 450 518 35,000  Level Fort Worth Center
07:03PM 33.0519 -92.8267 39° Northeast 456 525 35,000  Level Fort Worth Center
07:04PM 33.1492 -92.7325 39° Northeast 453 521 35,000  Level Fort Worth Center
07:05PM 33.2453 -92.6406 39° Northeast 446 513 35,000  Level Fort Worth Center
07:06PM 33.3431 -92.5464 39° Northeast 448 516 35,000  Level Fort Worth Center
07:07PM 33.4194 -92.4725 39° Northeast 445 512 35,000  Level Memphis Center
07:08PM 33.5167 -92.3789 39° Northeast 447 514 35,000  Level Memphis Center
07:09PM 33.6317 -92.2661 39° Northeast 447 514 35,000  Level Memphis Center
07:10PM 33.7278 -92.1731 39° Northeast 445 512 35,000  Level Memphis Center
07:11PM 33.8247 -92.0778 39° Northeast 447 514 35,000  Level Memphis Center
07:12PM 33.9211 -91.9828 39° Northeast 449 517 35,000  Level Memphis Center
07:13PM 34.0175 -91.8878 39° Northeast 449 517 35,000  Level Memphis Center
07:14PM 34.1175 -91.7897 39° Northeast 449 517 35,000  Level Memphis Center
07:15PM 34.2269 -91.6806 40° Northeast 449 517 35,000  Level Memphis Center
07:16PM 34.3253 -91.5831 39° Northeast 451 519 35,000  Level Memphis Center
07:17PM 34.4228 -91.4850 40° Northeast 451 519 35,000  Level Memphis Center
07:18PM 34.5197 -91.3872 40° Northeast 449 517 35,000  Level Memphis Center
07:19PM 34.6183 -91.2892 39° Northeast 451 519 35,000  Level Memphis Center
07:20PM 34.7156 -91.1903 40° Northeast 451 519 35,000  Level Memphis Center
07:21PM 34.8303 -91.0753 39° Northeast 453 521 35,000  Level Memphis Center
07:22PM 34.9292 -90.9767 39° Northeast 453 521 35,000  Level Memphis Center
07:23PM 35.0269 -90.8753 40° Northeast 454 522 35,000  Level Memphis Center
07:24PM 35.1256 -90.7756 40° Northeast 454 522 35,000  Level Memphis Center
07:25PM 35.2231 -90.6747 40° Northeast 453 521 35,000  Level Memphis Center
07:26PM 35.3219 -90.5736 40° Northeast 456 525 35,000  Level Memphis Center
07:27PM 35.4203 -90.4717 40° Northeast 456 525 35,000  Level Memphis Center
07:28PM 35.5192 -90.3700 40° Northeast 457 526 35,000  Level Memphis Center
07:29PM 35.6175 -90.2667 40° Northeast 456 525 35,000  Level Memphis Center
07:30PM 35.7169 -90.1633 40° Northeast 458 527 35,000  Level Memphis Center
07:31PM 35.8342 -90.0400 40° Northeast 461 531 35,000  Level Memphis Center
07:32PM 35.9333 -89.9375 40° Northeast 463 533 35,000  Level Memphis Center
07:33PM 36.0308 -89.8336 41° Northeast 463 533 35,000  Level Memphis Center
07:34PM 36.1289 -89.7319 40° Northeast 461 531 35,000  Level Memphis Center
07:35PM 36.2322 -89.6431 35° Northeast 452 520 35,000  Level Memphis Center
07:36PM 36.3289 -89.5414 40° Northeast 452 520 35,000  Level Memphis Center
07:38PM 36.4275 -89.4353 41° Northeast 457 526 35,000 -60 Level Memphis Center
07:39PM 36.5286 -89.3242 41° Northeast 463 533 34,900 -540 Descending Memphis Center
07:40PM 36.6272 -89.2161 41° Northeast 465 535 33,900 -960 Descending Memphis Center
07:41PM 36.7256 -89.1094 41° Northeast 466 536 33,000 -480 Descending Memphis Center
07:42PM 36.8436 -88.9792 41° Northeast 469 540 33,000  Level Memphis Center
07:43PM 36.9436 -88.8692 41° Northeast 475 547 33,000  Level Memphis Center
07:44PM 37.0428 -88.7592 42° Northeast 476 548 33,000  Level Memphis Center
07:45PM 37.1422 -88.6494 41° Northeast 476 548 33,000  Level Memphis Center
07:46PM 37.2411 -88.5392 42° Northeast 476 548 33,000  Level Memphis Center
07:47PM 37.3383 -88.4297 42° Northeast 472 543 33,000  Level Memphis Center
07:47PM 37.4086 -88.3514 42° Northeast 472 543 33,000  Level Indianapolis Center
07:48PM 37.5042 -88.2442 42° Northeast 471 542 33,000  Level Indianapolis Center
07:49PM 37.6061 -88.1283 42° Northeast 473 544 33,000 -60 Level Indianapolis Center
07:50PM 37.6925 -87.9972 50° Northeast 485 558 32,900 -540 Descending Indianapolis Center
07:51PM 37.7567 -87.8344 63° Northeast 508 585 31,900 -1,020 Descending Indianapolis Center
07:53PM 37.8189 -87.6753 64° Northeast 516 594 30,900 -960 Descending Indianapolis Center
07:54PM 37.8803 -87.5164 64° Northeast 517 595 30,000 -960 Descending Indianapolis Center
07:55PM 37.9442 -87.3525 64° Northeast 517 595 29,000 -1,080 Descending Indianapolis Center
07:56PM 38.0206 -87.1533 64° Northeast 525 604 27,800 -1,080 Descending Indianapolis Center
07:57PM 38.0831 -86.9889 64° Northeast 525 604 26,800 -1,020 Descending Indianapolis Center
07:58PM 38.1461 -86.8250 64° Northeast 525 604 25,800 -1,020 Descending Indianapolis Center
07:59PM 38.2081 -86.6603 64° Northeast 522 601 24,800 -1,020 Descending Indianapolis Center
08:00PM 38.2708 -86.4944 64° Northeast 522 601 23,800 -1,440 Descending Indianapolis Center
08:02PM 38.4053 -86.1336 64° Northeast 509 586 20,500 -1,740 Descending Indianapolis Center
08:03PM 38.4631 -85.9781 65° Northeast 489 563 18,500 -1,920 Descending Indianapolis Center
08:04PM 38.5181 -85.8258 65° Northeast 475 547 16,600 -1,980 Descending Indianapolis Center
08:05PM 38.5731 -85.6781 65° Northeast 462 532 14,500 -2,280 Descending Indianapolis Center
08:06PM 38.6311 -85.5442 61° Northeast 446 513 11,900 -1,740 Descending Indianapolis Center
08:07PM 38.6894 -85.4164 60° Northeast 423 487 11,000 -480 Descending Indianapolis Center
08:08PM 38.7458 -85.2844 61° Northeast 424 488 11,000  Level Indianapolis Center
08:09PM 38.8139 -85.1261 61° Northeast 427 491 11,000 -60 Level Indianapolis Center
08:10PM 38.8728 -84.9928 60° Northeast 430 495 10,900 -540 Descending Indianapolis Center
08:11PM 38.9219 -84.8761 62° Northeast 371 427 9,900 -1,080 Descending Indianapolis Center
08:12PM 38.9833 -84.8000 44° Northeast 306 352 8,900 -1,500 Descending Cincinnati TRACON
08:13PM 39.0500 -84.7833 11° North 263 303 7,200 -1,740 Descending Cincinnati TRACON
08:14PM 39.1333 -84.7833 360° North 261 300 5,300 -1,740 Descending Cincinnati TRACON
08:15PM 39.1833 -84.7167 46° Northeast 280 322 3,600 -1,320 Descending Cincinnati TRACON
08:16PM 39.1500 -84.6833 142° Southeast 134 154 2,800 -780 Descending Cincinnati TRACON
08:17PM 39.1167 -84.6667 159° South 106 122 2,200 -720 Descending Cincinnati TRACON
08:18PM 39.0833 -84.6667 180° South 100 115 1,400 -840 Descending Cincinnati TRACON